createdAt,value
2022-12-22T00:01:46.559Z,121.30
2022-12-22T00:07:32.363Z,139.88
2022-12-22T00:10:21.962Z,132.48
2022-12-22T00:13:25.649Z,136.52
2022-12-22T00:16:15.472Z,129.70
2022-12-22T00:19:03.611Z,135.18
2022-12-22T00:21:54.715Z,138.93
2022-12-22T00:24:51.064Z,134.13
2022-12-22T00:28:08.293Z,137.80
2022-12-22T00:30:59.766Z,123.90
2022-12-22T00:34:07.058Z,119.55
2022-12-22T00:44:21.021Z,133.85
2022-12-22T00:48:20.980Z,129.57
2022-12-22T00:51:35.072Z,122.65
2022-12-22T00:54:52.574Z,130.57
2022-12-22T00:58:37.674Z,129.68
2022-12-22T01:01:53.953Z,114.88
2022-12-22T01:04:50.114Z,117.75
2022-12-22T01:20:05.828Z,94.43
2022-12-22T01:27:56.448Z,86.15
2022-12-22T01:31:33.836Z,82.47
2022-12-22T01:35:12.726Z,90.22
2022-12-22T01:38:13.478Z,83.95
2022-12-22T01:41:22.581Z,80.90
2022-12-22T01:56:47.550Z,98.22
2022-12-22T01:59:55.906Z,98.40
2022-12-22T02:03:09.608Z,96.57
2022-12-22T02:06:13.924Z,106.78
2022-12-22T02:09:10.027Z,98.10
2022-12-22T02:12:27.139Z,117.80
2022-12-22T02:15:39.286Z,100.93
2022-12-22T02:19:28.217Z,100.05
2022-12-22T02:33:19.647Z,120.25
2022-12-22T02:36:35.499Z,101.78
2022-12-22T02:43:24.726Z,124.30
2022-12-22T02:46:31.827Z,108.80
2022-12-22T02:49:34.661Z,113.82
2022-12-22T02:52:40.620Z,112.40
2022-12-22T02:58:37.448Z,119.97
2022-12-22T03:01:25.811Z,118.95
2022-12-22T03:04:15.361Z,111.18
2022-12-22T03:07:01.552Z,102.18
2022-12-22T03:09:48.749Z,85.57
2022-12-22T03:12:36.158Z,84.03
2022-12-22T03:15:33.945Z,85.88
2022-12-22T03:21:47.245Z,68.30
2022-12-22T03:24:37.817Z,58.95
2022-12-22T03:27:05.997Z,53.10
2022-12-22T03:29:38.034Z,49.42
2022-12-22T03:32:16.596Z,50.97
2022-12-22T03:35:04.651Z,43.05
2022-12-22T03:37:43.536Z,43.78
2022-12-22T03:40:26.384Z,48.22
2022-12-22T03:43:12.515Z,38.80
2022-12-22T03:46:02.515Z,38.50
2022-12-22T03:48:40.288Z,32.03
2022-12-22T03:51:08.669Z,33.35
2022-12-22T03:53:37.772Z,30.48
2022-12-22T03:56:08.160Z,32.67
2022-12-22T03:58:51.756Z,35.42
2022-12-22T04:01:19.709Z,31.00
2022-12-22T04:03:49.023Z,36.30
2022-12-22T04:06:20.258Z,34.22
2022-12-22T04:08:51.815Z,32.65
2022-12-22T04:11:41.797Z,34.05
2022-12-22T04:14:14.579Z,38.15
2022-12-22T04:16:45.712Z,31.00
2022-12-22T04:19:15.026Z,33.33
2022-12-22T04:21:46.484Z,36.72
2022-12-22T04:24:16.280Z,33.45
2022-12-22T04:26:45.380Z,35.22
2022-12-22T04:29:13.855Z,32.90
2022-12-22T04:31:42.684Z,36.08
2022-12-22T04:34:14.645Z,34.45
2022-12-22T04:36:43.092Z,37.58
2022-12-22T04:39:17.625Z,32.80
2022-12-22T04:41:51.611Z,32.00
2022-12-22T04:44:23.113Z,35.65
2022-12-22T04:47:10.308Z,36.40
2022-12-22T04:49:47.818Z,38.08
2022-12-22T04:55:17.740Z,40.95
2022-12-22T04:58:03.299Z,42.95
2022-12-22T05:01:07.757Z,37.90
2022-12-22T05:04:00.721Z,34.58
2022-12-22T05:06:40.707Z,33.95
2022-12-22T05:10:38.775Z,38.90
2022-12-22T05:13:28.235Z,34.75
2022-12-22T05:16:18.352Z,35.00
2022-12-22T05:18:47.522Z,37.30
2022-12-22T05:21:26.445Z,38.38
2022-12-22T05:24:02.864Z,39.38
2022-12-22T05:29:12.397Z,34.50
2022-12-22T05:31:47.316Z,26.40
2022-12-22T05:34:25.021Z,36.30
2022-12-22T05:36:52.966Z,27.75
2022-12-22T05:39:21.218Z,31.08
2022-12-22T05:41:52.884Z,29.52
2022-12-22T05:44:21.183Z,28.02
2022-12-22T05:46:53.261Z,31.17
2022-12-22T05:49:56.375Z,26.70
2022-12-22T05:52:32.215Z,26.42
2022-12-22T05:59:32.139Z,27.05
2022-12-22T06:02:04.351Z,28.50
2022-12-22T06:04:43.710Z,27.38
2022-12-22T06:07:19.113Z,30.50
2022-12-22T06:09:54.356Z,29.60
2022-12-22T06:12:42.175Z,27.52
2022-12-22T06:16:13.708Z,27.50
2022-12-22T06:19:11.457Z,27.55
2022-12-22T06:21:39.635Z,28.67
2022-12-22T06:24:14.264Z,26.65
2022-12-22T06:26:42.250Z,26.95
2022-12-22T06:29:10.168Z,25.85
2022-12-22T07:48:59.807Z,33.85
2022-12-22T07:51:32.172Z,32.70
2022-12-22T07:54:11.087Z,34.15
2022-12-22T07:56:49.404Z,32.75
2022-12-22T07:59:20.222Z,28.83
2022-12-22T08:01:48.262Z,32.30
2022-12-22T08:04:16.896Z,29.83
2022-12-22T08:06:47.569Z,37.25
2022-12-22T08:09:18.055Z,35.78
2022-12-22T08:11:47.136Z,34.60
2022-12-22T08:14:20.728Z,31.42
2022-12-22T08:16:48.835Z,31.13
2022-12-22T08:19:49.408Z,29.83
2022-12-22T08:45:03.578Z,33.60
2022-12-22T08:48:29.174Z,26.73
2022-12-22T09:25:24.643Z,31.38
2022-12-22T09:36:36.520Z,36.78
2022-12-22T10:04:32.911Z,46.13
2022-12-22T10:08:13.095Z,45.22
2022-12-22T10:10:57.525Z,42.95
2022-12-22T10:13:54.548Z,50.47
2022-12-22T10:16:35.342Z,44.88
2022-12-22T10:19:11.233Z,42.28
2022-12-22T10:21:46.660Z,45.33
2022-12-22T10:24:32.168Z,43.10
2022-12-22T10:29:30.746Z,37.80
2022-12-22T10:32:04.839Z,46.17
2022-12-22T10:34:33.778Z,38.75
2022-12-22T10:37:07.316Z,42.80
2022-12-22T10:39:39.964Z,38.50
2022-12-22T10:42:15.532Z,40.25
2022-12-22T10:44:49.918Z,30.73
2022-12-22T10:47:28.963Z,40.58
2022-12-22T10:52:35.695Z,37.08
2022-12-22T10:55:38.605Z,41.55
2022-12-22T10:59:05.853Z,38.15
2022-12-22T11:01:38.472Z,39.22
2022-12-22T11:04:33.299Z,36.42
2022-12-22T11:07:10.756Z,35.05
2022-12-22T11:09:42.036Z,36.53
2022-12-22T11:12:43.768Z,43.17
2022-12-22T11:15:39.207Z,41.90
2022-12-22T11:18:29.160Z,43.85
2022-12-22T11:21:17.338Z,39.92
2022-12-22T11:24:00.024Z,43.30
2022-12-22T11:26:58.815Z,41.28
2022-12-22T11:29:35.552Z,36.17
2022-12-22T11:32:40.265Z,47.30
2022-12-22T11:35:13.680Z,49.17
2022-12-22T11:38:01.689Z,41.63
2022-12-22T11:40:43.888Z,42.83
2022-12-22T11:43:44.401Z,42.95
2022-12-22T11:46:55.145Z,43.00
2022-12-22T11:49:38.612Z,46.53
2022-12-22T11:52:28.802Z,41.22
2022-12-22T11:55:12.354Z,42.60
2022-12-22T11:57:58.525Z,41.05
2022-12-22T12:00:55.649Z,44.25
2022-12-22T12:03:21.904Z,43.88
2022-12-22T12:06:20.999Z,45.10
2022-12-22T12:09:29.770Z,44.90
2022-12-22T12:12:23.901Z,44.60
2022-12-22T12:15:26.380Z,45.13
2022-12-22T12:18:11.940Z,38.08
2022-12-22T12:21:02.690Z,46.33
2022-12-22T12:24:07.216Z,38.85
2022-12-22T12:26:44.391Z,45.95
2022-12-22T12:29:28.304Z,44.53
2022-12-22T12:32:02.591Z,40.03
2022-12-22T12:34:34.051Z,37.85
2022-12-22T12:37:06.186Z,35.75
2022-12-22T12:40:27.264Z,37.67
2022-12-22T12:42:56.273Z,37.42
2022-12-22T12:45:38.231Z,49.20
2022-12-22T12:48:24.472Z,42.75
2022-12-22T12:50:59.000Z,39.78
2022-12-22T12:55:56.976Z,60.97
2022-12-22T12:58:39.406Z,59.15
2022-12-22T13:01:11.936Z,58.83
2022-12-22T13:06:51.673Z,53.38
2022-12-22T13:12:55.275Z,53.58
2022-12-22T13:15:31.797Z,52.03
2022-12-22T13:18:00.934Z,59.40
2022-12-22T13:20:34.877Z,57.90
2022-12-22T13:23:10.491Z,57.88
2022-12-22T13:25:56.479Z,50.80
2022-12-22T13:28:25.155Z,55.05
2022-12-22T13:31:00.036Z,54.30
2022-12-22T13:33:32.301Z,50.45
2022-12-22T13:36:00.623Z,56.67
2022-12-22T13:38:34.069Z,54.20
2022-12-22T13:41:22.971Z,48.58
2022-12-22T13:43:58.717Z,47.95
2022-12-22T13:46:27.679Z,56.13
2022-12-22T13:48:58.312Z,55.33
2022-12-22T13:51:29.419Z,52.67
2022-12-22T13:54:11.994Z,49.42
2022-12-22T13:56:58.298Z,50.05
2022-12-22T13:59:45.692Z,53.50
2022-12-22T14:02:17.879Z,51.38
2022-12-22T14:05:06.564Z,53.20
2022-12-22T14:07:34.265Z,45.90
2022-12-22T14:10:02.033Z,51.17
2022-12-22T14:12:44.194Z,51.80
2022-12-22T14:15:20.134Z,54.28
2022-12-22T14:17:52.737Z,60.67
2022-12-22T14:20:35.718Z,65.65
2022-12-22T14:23:09.334Z,68.50
2022-12-22T14:25:42.697Z,75.38
2022-12-22T14:28:38.622Z,77.30
2022-12-22T14:31:12.182Z,82.22
2022-12-22T14:33:57.417Z,78.45
2022-12-22T14:36:40.712Z,75.95
2022-12-22T14:39:26.085Z,73.57
2022-12-22T14:41:56.792Z,72.40
2022-12-22T14:44:47.409Z,83.07
2022-12-22T14:47:22.489Z,78.47
2022-12-22T14:50:19.291Z,82.15
2022-12-22T14:52:59.885Z,76.47
2022-12-22T14:55:42.885Z,72.13
2022-12-22T14:58:10.324Z,73.60
2022-12-22T15:00:43.956Z,68.93
2022-12-22T15:03:33.073Z,76.10
2022-12-22T15:06:26.692Z,79.93
2022-12-22T15:09:07.536Z,82.90
2022-12-22T15:11:44.503Z,76.35
2022-12-22T15:14:24.266Z,67.38
2022-12-22T15:16:57.779Z,71.75
2022-12-22T15:19:32.047Z,70.13
2022-12-22T15:21:59.661Z,73.35
2022-12-22T15:24:27.591Z,77.82
2022-12-22T15:26:55.561Z,80.93
2022-12-22T15:29:23.035Z,85.63
2022-12-22T15:31:50.607Z,92.40
2022-12-22T15:34:30.976Z,85.70
2022-12-22T15:36:58.645Z,77.43
2022-12-22T15:39:26.480Z,79.40
2022-12-22T15:41:55.317Z,78.70
2022-12-22T15:44:22.869Z,86.82
2022-12-22T15:46:56.929Z,72.03
2022-12-22T15:49:32.982Z,73.15
2022-12-22T15:52:04.415Z,84.47
2022-12-22T15:54:35.221Z,69.93
2022-12-22T15:57:02.857Z,74.82
2022-12-22T15:59:30.645Z,76.20
2022-12-22T16:02:02.155Z,82.57
2022-12-22T16:04:30.524Z,74.75
2022-12-22T16:06:59.573Z,73.35
2022-12-22T16:09:32.611Z,82.25
2022-12-22T16:12:00.319Z,77.57
2022-12-22T16:14:30.249Z,81.93
2022-12-22T16:17:01.277Z,76.65
2022-12-22T16:19:28.789Z,82.72
2022-12-22T16:21:56.617Z,85.32
2022-12-22T16:24:37.240Z,90.78
2022-12-22T16:27:34.307Z,88.43
2022-12-22T16:30:23.696Z,78.93
2022-12-22T16:33:09.622Z,82.35
2022-12-22T16:35:46.925Z,84.85
2022-12-22T16:38:18.673Z,79.03
2022-12-22T16:40:53.113Z,83.93
2022-12-22T16:44:05.313Z,86.28
2022-12-22T16:46:38.997Z,89.05
2022-12-22T16:49:22.900Z,103.38
2022-12-22T16:52:03.494Z,93.00
2022-12-22T16:54:30.932Z,79.75
2022-12-22T16:56:58.474Z,88.85
2022-12-22T16:59:25.949Z,88.85
2022-12-22T17:01:56.240Z,82.45
2022-12-22T17:04:28.433Z,81.07
2022-12-22T17:06:58.439Z,71.70
2022-12-22T17:09:43.461Z,67.88
2022-12-22T17:12:21.592Z,60.67
2022-12-22T17:14:50.173Z,68.60
2022-12-22T17:17:31.806Z,62.97
2022-12-22T17:20:02.049Z,73.28
2022-12-22T17:22:34.338Z,69.75
2022-12-22T17:25:04.453Z,71.55
2022-12-22T17:27:33.624Z,65.72
2022-12-22T17:30:05.832Z,68.18
2022-12-22T17:32:33.251Z,64.13
2022-12-22T17:35:01.017Z,68.45
2022-12-22T17:37:31.629Z,68.70
2022-12-22T17:40:01.901Z,67.85
2022-12-22T17:42:31.594Z,70.50
2022-12-22T17:44:59.437Z,76.85
2022-12-22T17:47:33.491Z,76.32
2022-12-22T17:50:02.420Z,70.95
2022-12-22T17:52:29.899Z,74.95
2022-12-22T17:54:57.623Z,67.97
2022-12-22T17:57:29.804Z,71.32
2022-12-22T17:59:57.378Z,71.95
2022-12-22T18:02:25.999Z,69.47
2022-12-22T18:04:53.715Z,77.63
2022-12-22T18:07:23.934Z,68.95
2022-12-22T18:09:56.605Z,72.93
2022-12-22T18:12:24.829Z,64.03
2022-12-22T18:14:52.605Z,71.68
2022-12-22T18:17:35.192Z,63.17
2022-12-22T18:20:03.544Z,63.65
2022-12-22T18:22:31.013Z,68.05
2022-12-22T18:24:58.616Z,64.13
2022-12-22T18:27:26.055Z,76.25
2022-12-22T18:29:53.742Z,65.53
2022-12-22T18:32:27.461Z,69.57
2022-12-22T18:34:55.633Z,72.40
2022-12-22T18:37:23.436Z,68.53
2022-12-22T18:39:50.928Z,68.15
2022-12-22T18:42:23.673Z,69.22
2022-12-22T18:44:51.782Z,73.75
2022-12-22T18:47:19.448Z,66.68
2022-12-22T18:49:47.853Z,78.43
2022-12-22T18:52:21.673Z,76.50
2022-12-22T18:54:49.587Z,77.95
2022-12-22T18:57:19.930Z,73.93
2022-12-22T18:59:48.833Z,75.65
2022-12-22T19:02:28.326Z,68.93
2022-12-22T19:04:56.464Z,70.88
2022-12-22T19:07:25.720Z,70.50
2022-12-22T19:09:53.183Z,75.90
2022-12-22T19:12:23.370Z,72.68
2022-12-22T19:14:54.083Z,71.45
2022-12-22T19:17:24.382Z,71.30
2022-12-22T19:19:51.868Z,77.25
2022-12-22T19:22:22.113Z,69.68
2022-12-22T19:24:50.292Z,72.32
2022-12-22T19:27:24.220Z,70.13
2022-12-22T19:30:03.397Z,65.00
2022-12-22T19:32:46.085Z,70.05
2022-12-22T19:35:20.077Z,64.60
2022-12-22T19:37:50.085Z,65.78
2022-12-22T19:40:19.093Z,59.58
2022-12-22T19:42:50.213Z,64.43
2022-12-22T19:45:26.752Z,67.20
2022-12-22T19:47:56.819Z,66.63
2022-12-22T19:50:27.363Z,70.03
2022-12-22T19:52:56.398Z,62.65
2022-12-22T19:55:25.626Z,65.05
2022-12-22T19:57:53.449Z,66.97
2022-12-22T20:00:23.772Z,66.55
2022-12-22T20:02:54.387Z,68.03
2022-12-22T20:05:24.937Z,75.70
2022-12-22T20:07:55.102Z,69.28
2022-12-22T20:10:23.647Z,73.03
2022-12-22T20:12:54.115Z,70.47
2022-12-22T20:15:27.584Z,70.35
2022-12-22T20:17:57.168Z,71.05
2022-12-22T20:20:36.927Z,70.40
2022-12-22T20:23:15.183Z,77.28
2022-12-22T20:25:46.981Z,66.78
2022-12-22T20:28:25.872Z,79.63
2022-12-22T20:30:54.951Z,75.85
2022-12-22T20:33:24.056Z,69.10
2022-12-22T20:35:53.527Z,69.35
2022-12-22T20:38:36.787Z,78.03
2022-12-22T20:41:05.976Z,77.90
2022-12-22T20:43:35.274Z,73.38
2022-12-22T20:46:15.361Z,76.18
2022-12-22T20:48:49.249Z,72.82
2022-12-22T20:51:19.485Z,77.47
2022-12-22T20:53:48.205Z,74.70
2022-12-22T20:56:21.190Z,79.40
2022-12-22T20:58:49.367Z,74.03
2022-12-22T21:01:17.069Z,71.45
2022-12-22T21:03:45.397Z,69.90
2022-12-22T21:06:22.076Z,73.03
2022-12-22T21:08:49.802Z,81.55
2022-12-22T21:11:17.336Z,69.75
2022-12-22T21:13:45.407Z,79.82
2022-12-22T21:16:16.444Z,74.85
2022-12-22T21:18:44.297Z,79.05
2022-12-22T21:21:12.757Z,66.50
2022-12-22T21:23:40.525Z,68.85
2022-12-22T21:26:35.913Z,71.82
2022-12-22T21:29:08.032Z,83.20
2022-12-22T21:31:35.532Z,66.15
2022-12-22T21:34:03.438Z,68.55
2022-12-22T21:36:33.997Z,73.00
2022-12-22T21:39:06.292Z,72.63
2022-12-22T21:41:52.248Z,65.57
2022-12-22T21:44:19.782Z,65.65
2022-12-22T21:46:47.437Z,69.75
2022-12-22T21:49:24.217Z,69.90
2022-12-22T21:51:53.668Z,75.68
2022-12-22T21:54:25.200Z,66.60
2022-12-22T21:56:54.248Z,72.75
2022-12-22T21:59:22.043Z,64.30
2022-12-22T22:01:52.868Z,60.08
2022-12-22T22:04:24.020Z,61.67
2022-12-22T22:06:52.109Z,73.28
2022-12-22T22:09:19.673Z,58.53
2022-12-22T22:12:05.749Z,59.78
2022-12-22T22:14:33.213Z,61.40
2022-12-22T22:17:00.718Z,62.13
2022-12-22T22:19:28.224Z,69.85
2022-12-22T22:21:55.708Z,72.70
2022-12-22T22:24:23.142Z,57.63
2022-12-22T22:26:51.812Z,69.47
2022-12-22T22:29:19.438Z,65.57
2022-12-22T22:31:46.942Z,64.22
2022-12-22T22:34:15.575Z,59.72
2022-12-22T22:36:43.028Z,58.33
2022-12-22T22:39:13.410Z,60.03
2022-12-22T22:41:43.551Z,60.00
2022-12-22T22:44:11.937Z,63.47
2022-12-22T22:46:40.661Z,60.58
2022-12-22T22:49:08.706Z,66.80
2022-12-22T22:51:36.165Z,71.45
2022-12-22T22:54:03.853Z,60.75
2022-12-22T22:56:31.361Z,66.88
2022-12-22T22:58:59.895Z,73.53
2022-12-22T23:01:27.508Z,68.35
2022-12-22T23:03:55.072Z,69.65
2022-12-22T23:06:22.876Z,68.22
2022-12-22T23:08:51.055Z,71.10
2022-12-22T23:11:18.621Z,74.78
2022-12-22T23:13:46.139Z,71.75
2022-12-22T23:16:13.821Z,71.70
2022-12-22T23:18:41.345Z,69.65
2022-12-22T23:21:09.813Z,67.90
2022-12-22T23:23:37.306Z,70.63
2022-12-22T23:26:06.022Z,62.60
2022-12-22T23:28:34.161Z,70.80
2022-12-22T23:31:01.843Z,73.82
2022-12-22T23:33:32.169Z,62.50
2022-12-22T23:36:01.481Z,69.13
2022-12-22T23:38:30.001Z,69.55
2022-12-22T23:41:03.390Z,70.03
2022-12-22T23:43:31.517Z,72.53
2022-12-22T23:45:59.033Z,72.65
2022-12-22T23:48:26.596Z,72.80
2022-12-22T23:50:54.278Z,68.97
2022-12-22T23:53:21.780Z,68.28
2022-12-22T23:55:49.730Z,68.45
2022-12-22T23:58:18.045Z,74.18
